Forest View, Illinois
Current Conditions -  °F | °C
As of 10:53 PM on Saturday 25 Oct 2014 (Local Time) from KMDW Reporting Station
Clear Clear  
Wind Chill: 57°   Ceiling: Unl
Heat Index: 57°   Visibility: 10mi
Dew Point: 31°   Wind: 8mph
Humidity: 37%   Direction: 290°WNW
Pressure: 29.97"   Gusts: NA
Location:  41.789°N, 87.7699°W
Report Text: KMDW 260353Z 29007KT 10SM CLR 14/M01 A2997 RMK AO2 SLP145 T01391006
Loading
Personal Weather Stations






























Interactive Weather Map
Tropical Storm Tracking
New forecast layout! Learn more

10-Day Weather Forecast

Advertisements
Track Severe Weather on mobile